Time;durP1;ratioP1;P1;durP2;ratioP2;P2;SDS_P1;SDS_P2;PMS_P1;PMS_P2;Temp;Humidity;BMP_temperature;BMP_pressure;BME280_temperature;BME280_humidity;BME280_pressure;Samples;Min_cycle;Max_cycle;Signal;HPM_P1;HPM_P2
2022/04/04 12:00:55;;;;;;;6.32;1.08;;;13.00;92.10;;;;;;5073590;28;20090;-65
2022/04/04 12:03:25;;;;;;;4.65;0.90;;;;;;;;;;5072543;28;20052;-65
2022/04/04 12:05:50;;;;;;;4.13;0.75;;;13.10;92.10;;;;;;5073505;28;20044;-62
2022/04/04 12:08:19;;;;;;;5.45;0.90;;;;;;;;;;5072724;28;20101;-63
2022/04/04 12:10:51;;;;;;;1.38;0.73;;;13.30;92.20;;;;;;5073705;28;20119;-62
2022/04/04 12:13:21;;;;;;;4.47;1.00;;;13.10;92.10;;;;;;5073852;28;20402;-62
2022/04/04 12:15:48;;;;;;;1.80;0.85;;;12.70;91.90;;;;;;5086118;28;20032;-63
2022/04/04 12:18:25;;;;;;;2.90;0.98;;;13.10;92.10;;;;;;5092369;28;20066;-63
2022/04/04 12:20:52;;;;;;;10.50;1.55;;;13.10;91.80;;;;;;5084483;28;20401;-65
2022/04/04 12:26:12;;;;;;;4.47;0.93;;;13.30;92.10;;;;;;5093783;28;20094;-65
2022/04/04 12:28:59;;;;;;;4.47;0.82;;;13.10;90.90;;;;;;5093849;28;20048;-65
2022/04/04 12:31:26;;;;;;;3.63;0.90;;;13.10;92.20;;;;;;5092271;28;20123;-63
2022/04/04 12:34:10;;;;;;;2.53;0.90;;;13.20;92.30;;;;;;5072017;28;20047;-64
2022/04/04 12:36:38;;;;;;;;;;;;;;;;;;5074019;28;20055;-61
2022/04/04 12:39:05;;;;;;;2.83;0.43;;;13.10;92.30;;;;;;5072202;28;19916;-61
2022/04/04 12:41:56;;;;;;;4.47;0.82;;;13.10;91.30;;;;;;5073562;28;20044;-61
2022/04/04 12:44:28;;;;;;;1.65;0.60;;;13.10;92.40;;;;;;5073470;28;20405;-63
2022/04/04 12:47:04;;;;;;;3.77;0.73;;;13.20;90.40;;;;;;5073466;28;20059;-62
2022/04/04 12:49:30;;;;;;;0.73;0.52;;;13.20;91.90;;;;;;5072452;28;20044;-62
2022/04/04 12:51:58;;;;;;;1.60;0.60;;;13.20;92.30;;;;;;5073932;28;20199;-63
2022/04/04 12:54:31;;;;;;;1.70;0.57;;;13.20;92.40;;;;;;5072986;28;20036;-62
2022/04/04 12:57:04;;;;;;;0.75;0.30;;;13.20;92.50;;;;;;5071828;28;20052;-62
2022/04/04 12:59:31;;;;;;;1.00;0.70;;;13.30;92.50;;;;;;5071581;28;20060;-62
2022/04/04 13:02:11;;;;;;;1.58;0.40;;;13.20;92.50;;;;;;5071716;28;20098;-64
2022/04/04 13:04:38;;;;;;;2.50;0.50;;;12.90;92.20;;;;;;5076079;28;20047;-63
2022/04/04 13:07:04;;;;;;;13.70;1.23;;;13.30;92.70;;;;;;5080941;28;20389;-62
2022/04/04 13:09:31;;;;;;;10.15;1.27;;;13.50;92.50;;;;;;5075918;28;20048;-63
2022/04/04 13:11:58;;;;;;;3.22;0.63;;;12.90;92.00;;;;;;5076550;28;20098;-63
2022/04/04 13:14:24;;;;;;;2.50;0.57;;;13.20;92.40;;;;;;5059458;28;20046;-62
2022/04/04 13:17:03;;;;;;;3.38;0.73;;;13.40;92.50;;;;;;5076945;28;20072;-65
2022/04/04 13:19:29;;;;;;;1.33;0.60;;;12.90;92.30;;;;;;5043578;28;20045;-62
2022/04/04 13:21:54;;;;;;;2.15;0.73;;;12.90;92.50;;;;;;5075825;28;20044;-62
2022/04/04 13:24:21;;;;;;;2.05;0.50;;;13.20;92.40;;;;;;5077065;28;20433;-62
2022/04/04 13:26:47;;;;;;;1.10;0.40;;;13.30;92.40;;;;;;5076873;28;20045;-62
2022/04/04 13:29:14;;;;;;;1.88;0.50;;;;;;;;;;5058882;28;20048;-62
2022/04/04 13:31:40;;;;;;;0.40;0.28;;;13.20;91.50;;;;;;5077236;28;20139;-63
2022/04/04 13:34:06;;;;;;;1.25;0.60;;;13.50;92.70;;;;;;5078772;28;20374;-62
2022/04/04 13:36:32;;;;;;;1.30;0.38;;;13.40;92.40;;;;;;5097018;28;20039;-62
2022/04/04 13:38:58;;;;;;;0.90;0.38;;;13.10;92.40;;;;;;5078358;28;20048;-64
2022/04/04 13:41:26;;;;;;;0.82;0.30;;;13.40;91.50;;;;;;5078668;28;20174;-64
2022/04/04 13:43:52;;;;;;;1.20;0.32;;;13.60;92.50;;;;;;5084449;28;20048;-64
2022/04/04 13:46:25;;;;;;;1.17;0.35;;;13.50;92.70;;;;;;5096810;28;20042;-65
2022/04/04 13:48:50;;;;;;;;;;;13.40;91.50;;;;;;5097107;28;20055;-64
2022/04/04 13:51:20;;;;;;;0.88;0.45;;;;;;;;;;5096681;28;19926;-64
2022/04/04 13:53:46;;;;;;;0.57;0.28;;;13.40;92.50;;;;;;5096693;28;20200;-64
2022/04/04 13:56:13;;;;;;;1.48;0.40;;;;;;;;;;5096625;28;20036;-64
2022/04/04 13:58:38;;;;;;;0.75;0.28;;;13.30;91.50;;;;;;5076307;28;20040;-63
2022/04/04 14:01:05;;;;;;;1.45;0.40;;;;;;;;;;5075949;28;20185;-64
2022/04/04 14:03:31;;;;;;;3.13;0.40;;;13.50;92.60;;;;;;5090104;28;20562;-64
2022/04/04 14:06:00;;;;;;;5.53;0.52;;;13.50;92.50;;;;;;5085865;28;20101;-62
2022/04/04 14:08:29;;;;;;;4.50;0.47;;;13.80;92.50;;;;;;5088489;28;20508;-62
2022/04/04 14:10:55;;;;;;;3.55;0.80;;;13.50;91.10;;;;;;5085728;28;20106;-63
2022/04/04 14:13:21;;;;;;;1.40;0.40;;;13.20;92.30;;;;;;5076328;28;20036;-64
2022/04/04 14:15:49;;;;;;;2.15;0.60;;;13.50;92.40;;;;;;5094855;28;20451;-64
2022/04/04 14:18:16;;;;;;;0.77;0.30;;;13.50;92.50;;;;;;5096082;28;20124;-64
2022/04/04 14:20:42;;;;;;;2.15;0.70;;;13.60;92.50;;;;;;5096639;28;20051;-64
2022/04/04 14:23:08;;;;;;;3.28;0.52;;;13.60;92.50;;;;;;5096072;28;20036;-63
2022/04/04 14:25:34;;;;;;;0.75;0.32;;;13.80;92.50;;;;;;5090362;28;20051;-62
2022/04/04 14:28:00;;;;;;;1.75;0.60;;;;;;;;;;5094354;28;20052;-62
2022/04/04 14:30:26;;;;;;;0.50;0.20;;;13.70;92.30;;;;;;5094637;28;20389;-62
2022/04/04 14:32:52;;;;;;;1.63;0.30;;;13.60;92.30;;;;;;5074427;28;20044;-63
2022/04/04 14:35:19;;;;;;;0.43;0.30;;;13.60;91.10;;;;;;5075664;28;20033;-63
2022/04/04 14:37:45;;;;;;;1.75;0.40;;;13.80;92.20;;;;;;5076772;28;20044;-62
2022/04/04 14:40:12;;;;;;;1.67;0.60;;;13.60;92.20;;;;;;5095548;28;20397;-62
2022/04/04 14:42:42;;;;;;;2.70;0.47;;;13.30;91.90;;;;;;5094203;28;20052;-63
2022/04/04 14:45:09;;;;;;;1.73;0.45;;;13.80;92.10;;;;;;5075812;28;20045;-62
2022/04/04 14:47:35;;;;;;;0.93;0.20;;;13.40;92.00;;;;;;5057650;28;20048;-62
2022/04/04 14:50:07;;;;;;;4.38;0.70;;;13.70;92.00;;;;;;5075321;28;20127;-62
2022/04/04 14:52:40;;;;;;;3.20;0.85;;;13.80;92.00;;;;;;5074939;28;20119;-63
2022/04/04 14:55:07;;;;;;;3.95;0.65;;;13.70;90.50;;;;;;5075148;28;20448;-62
2022/04/04 14:57:33;;;;;;;2.28;0.57;;;13.90;91.90;;;;;;5074900;28;20049;-61
2022/04/04 15:00:00;;;;;;;5.55;1.02;;;13.80;90.70;;;;;;5073471;28;20065;-62
2022/04/04 15:02:28;;;;;;;3.00;1.02;;;13.70;90.40;;;;;;5075096;28;20064;-62
2022/04/04 15:04:55;;;;;;;4.68;1.00;;;13.80;91.70;;;;;;5075188;28;20074;-62
2022/04/04 15:07:22;;;;;;;4.68;1.13;;;13.90;91.60;;;;;;5074639;28;20033;-62
2022/04/04 15:09:51;;;;;;;4.20;1.20;;;14.00;91.70;;;;;;5073957;28;20083;-62
2022/04/04 15:12:19;;;;;;;4.90;1.17;;;14.00;91.70;;;;;;5095117;28;20138;-62
2022/04/04 15:14:46;;;;;;;3.53;1.02;;;13.90;91.60;;;;;;5094428;28;20057;-62
2022/04/04 15:17:12;;;;;;;5.68;1.20;;;13.80;91.60;;;;;;5094835;28;20108;-63
2022/04/04 15:19:38;;;;;;;4.15;1.23;;;;;;;;;;5094696;28;20123;-62
2022/04/04 15:22:04;;;;;;;4.38;1.33;;;14.00;90.50;;;;;;5087990;28;20543;-64
2022/04/04 15:24:29;;;;;;;8.27;1.60;;;13.90;91.50;;;;;;5074115;28;20048;-65
2022/04/04 15:26:55;;;;;;;7.65;1.70;;;14.10;91.60;;;;;;5068927;28;20266;-65
2022/04/04 15:29:21;;;;;;;4.93;1.50;;;14.10;91.60;;;;;;5074536;28;20177;-63
2022/04/04 15:31:47;;;;;;;4.10;1.63;;;14.20;91.60;;;;;;5074088;28;20040;-65
2022/04/04 15:34:13;;;;;;;4.97;1.58;;;;;;;;;;5074451;28;20058;-64
2022/04/04 15:36:40;;;;;;;6.63;1.98;;;14.20;91.60;;;;;;5074392;28;20496;-62
2022/04/04 15:39:10;;;;;;;6.45;1.95;;;14.10;91.70;;;;;;5074872;28;20052;-64
2022/04/04 15:41:37;;;;;;;10.15;2.40;;;;;;;;;;5073973;28;20052;-65
2022/04/04 15:44:04;;;;;;;6.63;2.03;;;14.00;91.70;;;;;;5080753;28;20036;-65
2022/04/04 15:46:31;;;;;;;8.05;2.10;;;14.20;91.70;;;;;;5094420;28;20086;-63
2022/04/04 15:48:57;;;;;;;11.68;2.70;;;14.30;91.60;;;;;;5093175;28;20044;-65
2022/04/04 15:51:24;;;;;;;10.27;2.58;;;14.40;90.50;;;;;;5094055;28;20101;-65
2022/04/04 15:53:54;;;;;;;7.65;2.00;;;14.30;91.50;;;;;;5094357;28;20094;-62
2022/04/04 15:56:21;;;;;;;7.30;2.17;;;14.20;91.60;;;;;;5084906;28;20044;-64
2022/04/04 15:58:46;;;;;;;5.95;2.03;;;14.30;91.60;;;;;;5073544;28;20063;-63
2022/04/04 16:01:12;;;;;;;14.13;2.38;;;14.30;91.60;;;;;;5071991;28;20048;-61
2022/04/04 16:03:45;;;;;;;10.40;2.47;;;14.30;91.50;;;;;;5073811;28;20477;-64
2022/04/04 16:06:16;;;;;;;14.43;2.78;;;14.10;91.60;;;;;;5073618;28;20080;-63
2022/04/04 16:08:43;;;;;;;12.00;2.30;;;14.20;91.60;;;;;;5073887;28;20413;-65
2022/04/04 16:11:13;;;;;;;9.00;2.47;;;14.20;90.30;;;;;;5073412;28;20050;-65
2022/04/04 16:13:39;;;;;;;11.95;2.38;;;14.20;91.50;;;;;;5073901;28;20051;-66
2022/04/04 16:16:06;;;;;;;13.40;2.45;;;14.20;91.50;;;;;;5073745;28;20127;-66
2022/04/04 16:18:32;;;;;;;6.38;1.90;;;;;;;;;;5073739;28;20453;-64
2022/04/04 16:20:57;;;;;;;8.05;2.05;;;14.20;91.50;;;;;;5073375;28;20482;-64
2022/04/04 16:23:23;;;;;;;13.77;2.15;;;14.10;91.50;;;;;;5073499;28;20059;-63
2022/04/04 16:25:49;;;;;;;7.13;2.10;;;14.20;91.60;;;;;;5073636;28;20046;-66
2022/04/04 16:28:15;;;;;;;7.68;2.10;;;14.40;90.60;;;;;;5073355;28;20432;-64
2022/04/04 16:30:41;;;;;;;9.73;2.30;;;14.40;91.60;;;;;;5067274;28;20044;-62
2022/04/04 16:33:07;;;;;;;9.35;1.83;;;13.90;91.50;;;;;;5073588;28;20068;-63
2022/04/04 16:35:33;;;;;;;10.15;2.25;;;14.40;91.60;;;;;;5073248;28;20124;-62
2022/04/04 16:38:02;;;;;;;13.45;2.53;;;14.20;91.50;;;;;;5072793;28;20045;-62
2022/04/04 16:40:28;;;;;;;6.35;1.55;;;13.90;91.50;;;;;;5073434;28;20040;-62
2022/04/04 16:42:53;;;;;;;5.70;1.70;;;14.20;91.60;;;;;;5073262;28;20497;-62
2022/04/04 16:45:19;;;;;;;8.52;1.88;;;14.10;91.60;;;;;;5073360;28;20049;-63
2022/04/04 16:47:45;;;;;;;8.38;2.30;;;14.20;91.60;;;;;;5085399;28;20044;-64
2022/04/04 16:50:13;;;;;;;7.40;1.98;;;14.30;91.70;;;;;;5093184;28;20104;-62
2022/04/04 16:52:40;;;;;;;7.00;2.38;;;14.10;91.60;;;;;;5073029;28;20048;-63
2022/04/04 16:55:07;;;;;;;4.95;1.75;;;14.20;91.70;;;;;;5072994;28;20049;-62
2022/04/04 16:57:33;;;;;;;7.57;1.92;;;;;;;;;;5073307;28;20072;-63
2022/04/04 16:59:59;;;;;;;9.32;2.13;;;14.10;91.70;;;;;;5072914;28;20467;-62
2022/04/04 17:02:25;;;;;;;7.88;2.08;;;14.40;91.80;;;;;;5072896;28;20088;-63
2022/04/04 17:04:51;;;;;;;8.70;2.08;;;14.40;91.80;;;;;;5073733;28;20080;-63
2022/04/04 17:07:16;;;;;;;10.32;2.00;;;14.20;91.80;;;;;;5073169;28;20109;-62
2022/04/04 17:09:42;;;;;;;8.38;1.80;;;13.80;91.70;;;;;;5073189;28;20055;-66
2022/04/04 17:12:08;;;;;;;9.63;2.17;;;14.00;91.70;;;;;;5073633;28;20045;-62
2022/04/04 17:14:35;;;;;;;10.88;1.98;;;14.10;91.80;;;;;;5071947;28;20128;-63
2022/04/04 17:17:00;;;;;;;8.27;1.85;;;14.20;92.10;;;;;;5072824;28;20502;-62
2022/04/04 17:19:26;;;;;;;5.72;1.70;;;14.30;91.90;;;;;;5073013;28;20084;-62
2022/04/04 17:21:53;;;;;;;6.93;1.95;;;14.10;91.90;;;;;;5072476;28;20124;-64
2022/04/04 17:24:19;;;;;;;8.02;1.88;;;14.10;91.90;;;;;;5072982;28;20052;-62
2022/04/04 17:26:45;;;;;;;9.13;2.10;;;14.20;92.10;;;;;;5073038;28;20045;-61
2022/04/04 17:29:14;;;;;;;9.10;1.90;;;14.20;91.90;;;;;;5073030;28;20383;-62
2022/04/04 17:31:41;;;;;;;8.93;2.35;;;14.30;91.60;;;;;;5072572;28;20051;-61
2022/04/04 17:34:07;;;;;;;7.95;1.90;;;13.90;91.90;;;;;;5072682;28;20056;-62
2022/04/04 17:36:33;;;;;;;8.60;2.00;;;13.80;91.90;;;;;;5071348;28;20059;-62
2022/04/04 17:38:59;;;;;;;7.25;1.88;;;14.10;92.20;;;;;;5086673;28;20048;-62
2022/04/04 17:41:26;;;;;;;8.40;2.30;;;14.10;92.00;;;;;;5092799;28;20508;-62
2022/04/04 17:43:55;;;;;;;9.50;2.03;;;14.20;90.00;;;;;;5078076;28;20080;-66
2022/04/04 17:46:21;;;;;;;7.47;2.30;;;14.30;92.20;;;;;;5072931;28;20047;-62
2022/04/04 17:48:47;;;;;;;7.47;2.38;;;14.30;92.00;;;;;;5072816;28;20477;-61
2022/04/04 17:51:14;;;;;;;8.35;2.30;;;14.30;92.40;;;;;;5075901;28;20052;-62
2022/04/04 17:53:40;;;;;;;9.73;2.25;;;14.00;92.00;;;;;;5076297;28;20048;-63
2022/04/04 17:56:05;;;;;;;7.35;1.95;;;14.20;92.00;;;;;;5091182;28;20496;-61
2022/04/04 17:58:31;;;;;;;7.45;1.75;;;14.10;92.00;;;;;;5096432;28;20418;-64
2022/04/04 18:00:57;;;;;;;8.10;1.90;;;13.90;92.00;;;;;;5095835;28;20075;-63
2022/04/04 18:03:23;;;;;;;6.18;2.05;;;14.30;92.10;;;;;;5096230;28;20101;-63
2022/04/04 18:05:49;;;;;;;5.55;1.65;;;14.00;92.30;;;;;;5096118;28;20040;-64
2022/04/04 18:08:15;;;;;;;9.23;2.05;;;13.60;91.90;;;;;;5096269;28;20040;-63
2022/04/04 18:10:40;;;;;;;10.02;2.33;;;14.10;92.20;;;;;;5095999;28;20526;-64
2022/04/04 18:13:06;;;;;;;8.93;2.35;;;14.30;92.10;;;;;;5080643;28;20045;-63
2022/04/04 18:15:32;;;;;;;7.18;2.17;;;13.60;91.90;;;;;;5075928;28;20045;-63
2022/04/04 18:17:58;;;;;;;7.47;1.95;;;13.90;92.00;;;;;;5075904;28;20448;-64
2022/04/04 18:20:24;;;;;;;7.32;1.70;;;14.30;92.10;;;;;;5075538;28;20040;-64
2022/04/04 18:22:53;;;;;;;6.57;1.77;;;14.10;92.10;;;;;;5075854;28;20083;-64
2022/04/04 18:25:23;;;;;;;6.88;1.95;;;14.20;92.10;;;;;;5075655;28;20053;-64
2022/04/04 18:27:52;;;;;;;;;;;14.30;91.20;;;;;;5076205;28;20074;-64
2022/04/04 18:30:18;;;;;;;6.60;1.70;;;14.40;92.60;;;;;;5075980;28;19920;-64
2022/04/04 18:32:44;;;;;;;8.20;1.98;;;14.10;92.20;;;;;;5075631;28;20044;-65
2022/04/04 18:35:10;;;;;;;6.70;2.03;;;14.20;91.20;;;;;;5074272;28;20147;-66
2022/04/04 18:37:37;;;;;;;6.57;1.85;;;14.20;92.20;;;;;;5075305;28;20044;-65
2022/04/04 18:40:08;;;;;;;7.85;2.10;;;14.10;92.10;;;;;;5075513;28;20433;-66
2022/04/04 18:42:34;;;;;;;6.07;2.22;;;13.80;92.00;;;;;;5074079;28;20136;-64
2022/04/04 18:45:00;;;;;;;8.07;1.92;;;14.00;92.30;;;;;;5075330;28;20478;-66
2022/04/04 18:47:26;;;;;;;6.78;2.10;;;14.10;92.20;;;;;;5092994;28;20044;-67
2022/04/04 18:49:52;;;;;;;11.20;2.17;;;14.20;92.10;;;;;;5095153;28;20478;-63
2022/04/04 18:52:17;;;;;;;6.90;1.80;;;14.10;92.20;;;;;;5095502;28;20062;-63
2022/04/04 18:54:46;;;;;;;7.22;1.90;;;14.00;92.10;;;;;;5095009;28;20044;-62
2022/04/04 18:57:12;;;;;;;7.35;1.92;;;;;;;;;;5094457;28;20044;-64
2022/04/04 18:59:39;;;;;;;5.57;1.80;;;14.20;92.20;;;;;;5076608;28;20047;-61
2022/04/04 19:02:04;;;;;;;5.45;1.50;;;14.20;92.20;;;;;;5094074;28;20063;-61
2022/04/04 19:04:30;;;;;;;7.18;1.80;;;14.00;92.20;;;;;;5094369;28;20048;-63
2022/04/04 19:06:59;;;;;;;6.47;1.80;;;14.20;92.20;;;;;;5095133;28;20481;-66
2022/04/04 19:09:26;;;;;;;7.75;1.85;;;13.90;92.20;;;;;;5095117;28;20474;-61
2022/04/04 19:11:52;;;;;;;8.15;1.98;;;14.00;91.20;;;;;;5094428;28;20048;-62
2022/04/04 19:14:19;;;;;;;6.47;1.98;;;13.90;92.10;;;;;;5074736;28;20044;-68
2022/04/04 19:16:44;;;;;;;8.57;1.92;;;13.90;92.10;;;;;;5073287;28;20036;-61
2022/04/04 19:19:10;;;;;;;8.32;2.03;;;14.10;92.10;;;;;;5073134;28;20048;-61
2022/04/04 19:21:36;;;;;;;8.18;1.80;;;14.20;91.90;;;;;;5074833;28;20123;-61
2022/04/04 19:24:02;;;;;;;6.07;1.73;;;14.00;92.10;;;;;;5074104;28;20040;-62
2022/04/04 19:26:28;;;;;;;8.73;2.22;;;14.30;92.20;;;;;;5072872;28;20056;-61
2022/04/04 19:28:54;;;;;;;5.18;1.77;;;14.20;91.10;;;;;;5074597;28;20167;-63
2022/04/04 19:31:22;;;;;;;5.57;1.58;;;14.30;92.20;;;;;;5073029;28;20530;-61
2022/04/04 19:33:49;;;;;;;7.22;1.80;;;14.10;90.80;;;;;;5074346;28;20393;-62
2022/04/04 19:36:15;;;;;;;6.75;1.63;;;14.00;90.90;;;;;;5072987;28;20153;-65
2022/04/04 19:38:41;;;;;;;7.47;1.70;;;14.40;92.20;;;;;;5074338;28;20072;-64
2022/04/04 19:41:07;;;;;;;8.05;2.20;;;14.00;92.10;;;;;;5057070;28;20072;-67
2022/04/04 19:43:32;;;;;;;5.55;1.50;;;14.10;92.20;;;;;;5074098;28;20037;-67
2022/04/04 19:45:59;;;;;;;7.00;1.70;;;14.20;92.40;;;;;;5074513;28;20072;-67
2022/04/04 19:48:27;;;;;;;5.55;1.60;;;14.10;92.10;;;;;;5074074;28;20386;-67
2022/04/04 19:50:53;;;;;;;7.32;2.17;;;14.30;92.20;;;;;;5072738;28;20474;-67
2022/04/04 19:53:19;;;;;;;6.45;1.73;;;;;;;;;;5073995;28;20032;-67
2022/04/04 19:55:45;;;;;;;7.15;1.88;;;14.00;92.10;;;;;;5094234;28;20393;-67
2022/04/04 19:58:12;;;;;;;6.20;1.63;;;14.10;92.20;;;;;;5093903;28;20048;-67
2022/04/04 20:00:38;;;;;;;6.75;1.90;;;14.00;92.30;;;;;;5076207;28;20052;-62
2022/04/04 20:03:06;;;;;;;7.78;2.10;;;;;;;;;;5093752;28;20493;-67
2022/04/04 20:05:32;;;;;;;8.57;1.95;;;14.20;92.20;;;;;;5093690;28;20122;-62
2022/04/04 20:07:58;;;;;;;7.80;2.00;;;14.00;92.10;;;;;;5088542;28;20076;-65
2022/04/04 20:10:24;;;;;;;5.32;1.80;;;14.00;92.10;;;;;;5093061;28;20097;-66
2022/04/04 20:12:49;;;;;;;6.95;1.75;;;14.10;91.40;;;;;;5094040;28;20138;-67
2022/04/04 20:15:18;;;;;;;6.47;1.75;;;14.00;92.50;;;;;;5092800;28;20048;-67
2022/04/04 20:17:44;;;;;;;7.47;1.95;;;13.80;93.10;;;;;;5092129;28;20504;-67
2022/04/04 20:20:10;;;;;;;9.23;2.35;;;13.80;92.80;;;;;;5093370;28;20047;-67
2022/04/04 20:22:37;;;;;;;7.50;1.92;;;14.10;93.20;;;;;;5093937;28;20032;-67
2022/04/04 20:25:04;;;;;;;7.25;1.92;;;14.10;93.80;;;;;;5093801;28;20059;-66
2022/04/04 20:27:30;;;;;;;9.27;2.20;;;14.20;93.40;;;;;;5090403;28;20123;-62
2022/04/04 20:29:57;;;;;;;13.13;2.65;;;14.20;93.50;;;;;;5073366;28;20060;-63
2022/04/04 20:32:23;;;;;;;7.85;2.70;;;14.00;93.40;;;;;;5073300;28;20578;-62
2022/04/04 20:34:50;;;;;;;9.02;1.83;;;14.20;92.60;;;;;;5073542;28;20398;-63
2022/04/04 20:37:16;;;;;;;6.22;1.90;;;14.40;92.70;;;;;;5073627;28;20405;-62
2022/04/04 20:39:43;;;;;;;8.43;2.22;;;14.30;93.70;;;;;;5072271;28;20109;-66
2022/04/04 20:42:08;;;;;;;11.18;2.58;;;14.20;93.80;;;;;;5073251;28;20045;-67
2022/04/04 20:44:34;;;;;;;8.82;1.67;;;14.30;93.80;;;;;;5075084;28;20054;-64
2022/04/04 20:47:01;;;;;;;9.23;2.40;;;14.40;93.80;;;;;;5093724;28;20119;-67
2022/04/04 20:49:27;;;;;;;8.27;2.15;;;13.90;93.70;;;;;;5093370;28;20078;-62
2022/04/04 20:51:53;;;;;;;8.57;2.47;;;14.20;93.80;;;;;;5093924;28;20126;-61
2022/04/04 20:54:19;;;;;;;6.95;2.13;;;14.30;93.00;;;;;;5093582;28;20036;-61
2022/04/04 20:56:45;;;;;;;7.22;1.88;;;14.30;93.90;;;;;;5093602;28;20079;-61
2022/04/04 20:59:10;;;;;;;6.20;1.88;;;14.30;94.30;;;;;;5093308;28;20040;-61
2022/04/04 21:01:36;;;;;;;10.07;2.00;;;14.10;94.10;;;;;;5092101;28;20049;-61
2022/04/04 21:04:02;;;;;;;4.78;1.60;;;;;;;;;;5093439;28;20048;-61
2022/04/04 21:06:28;;;;;;;9.68;2.13;;;14.10;93.90;;;;;;5093997;28;20083;-61
2022/04/04 21:08:54;;;;;;;9.82;2.10;;;14.20;93.90;;;;;;5088817;28;20105;-67
2022/04/04 21:11:19;;;;;;;8.68;2.10;;;14.20;94.30;;;;;;5091892;28;20044;-67
2022/04/04 21:13:45;;;;;;;7.03;1.75;;;14.10;94.20;;;;;;5093112;28;20062;-67
2022/04/04 21:16:11;;;;;;;10.95;2.05;;;13.80;94.10;;;;;;5093406;28;20071;-66
2022/04/04 21:18:37;;;;;;;7.15;2.38;;;14.10;94.60;;;;;;5092562;28;20145;-66
2022/04/04 21:21:03;;;;;;;11.05;2.83;;;14.20;94.40;;;;;;5074389;28;20467;-67
2022/04/04 21:23:32;;;;;;;11.15;2.20;;;14.10;94.60;;;;;;5092769;28;20048;-67
2022/04/04 21:25:58;;;;;;;8.25;1.88;;;14.40;95.00;;;;;;5094663;28;20123;-67
2022/04/04 21:28:24;;;;;;;7.03;1.85;;;14.30;94.70;;;;;;5096830;28;20495;-67
2022/04/04 21:30:52;;;;;;;7.40;1.90;;;;;;;;;;5096952;28;20044;-67
2022/04/04 21:33:18;;;;;;;6.95;2.40;;;13.90;94.70;;;;;;5096797;28;20039;-66
2022/04/04 21:35:44;;;;;;;6.20;2.00;;;14.10;95.10;;;;;;5092786;28;20127;-67
2022/04/04 21:38:10;;;;;;;6.40;1.70;;;14.20;93.90;;;;;;5076486;28;20083;-67
2022/04/04 21:40:36;;;;;;;9.18;2.13;;;14.40;94.80;;;;;;5076690;28;20466;-67
2022/04/04 21:43:03;;;;;;;7.70;2.10;;;14.30;95.20;;;;;;5078985;28;20117;-67
2022/04/04 21:45:29;;;;;;;7.85;1.77;;;14.20;94.70;;;;;;5096593;28;20512;-66
2022/04/04 21:47:54;;;;;;;6.78;1.67;;;14.10;94.80;;;;;;5095116;28;20044;-65
2022/04/04 21:50:21;;;;;;;5.50;1.75;;;;;;;;;;5091718;28;20079;-66
2022/04/04 21:52:49;;;;;;;6.82;1.65;;;;;;;;;;5082079;28;20067;-66
2022/04/04 21:55:15;;;;;;;8.63;2.03;;;;;;;;;;5091659;28;20088;-65
2022/04/04 21:57:41;;;;;;;9.00;2.20;;;;;;;;;;5086927;28;20101;-64
2022/04/04 22:00:11;;;;;;;9.98;2.58;;;14.20;94.80;;;;;;5076248;28;20091;-65
2022/04/04 22:02:38;;;;;;;6.72;2.08;;;14.00;94.60;;;;;;5077672;28;20052;-65
2022/04/04 22:05:08;;;;;;;7.65;1.80;;;14.30;94.50;;;;;;5085338;28;20505;-65
2022/04/04 22:07:34;;;;;;;6.40;1.80;;;14.30;94.50;;;;;;5085985;28;20086;-65
2022/04/04 22:09:59;;;;;;;5.72;1.77;;;14.20;94.20;;;;;;5090001;28;20040;-65
2022/04/04 22:12:25;;;;;;;6.03;1.70;;;14.30;94.20;;;;;;5075824;28;20118;-65
2022/04/04 22:14:51;;;;;;;8.15;1.98;;;14.20;94.10;;;;;;5079606;28;20115;-64
2022/04/04 22:17:17;;;;;;;6.30;2.08;;;;;;;;;;5096611;28;20131;-65
2022/04/04 22:19:43;;;;;;;9.05;1.77;;;14.20;94.00;;;;;;5094329;28;20047;-65
2022/04/04 22:22:09;;;;;;;6.93;1.88;;;;;;;;;;5085196;28;20440;-65
2022/04/04 22:24:35;;;;;;;5.13;1.38;;;14.20;93.90;;;;;;5092643;28;20054;-64
2022/04/04 22:27:01;;;;;;;6.25;2.00;;;14.30;92.90;;;;;;5080825;28;20048;-64
2022/04/04 22:29:26;;;;;;;6.00;1.80;;;14.30;93.90;;;;;;5074132;28;20121;-66
2022/04/04 22:31:52;;;;;;;4.75;1.30;;;14.30;94.00;;;;;;5088403;28;20401;-62
2022/04/04 22:34:18;;;;;;;5.95;1.52;;;14.20;93.80;;;;;;5092944;28;20032;-64
2022/04/04 22:36:44;;;;;;;6.97;1.70;;;14.30;93.70;;;;;;5086623;28;20041;-64
2022/04/04 22:39:09;;;;;;;8.02;1.95;;;14.40;92.70;;;;;;5094378;28;20489;-64
2022/04/04 22:41:35;;;;;;;6.55;1.90;;;14.20;93.70;;;;;;5085700;28;20052;-64
2022/04/04 22:44:01;;;;;;;6.47;1.45;;;14.20;92.60;;;;;;5079012;28;20044;-64
2022/04/04 22:46:27;;;;;;;6.00;1.67;;;14.20;93.60;;;;;;5086002;28;20036;-64
2022/04/04 22:48:53;;;;;;;5.10;1.40;;;14.30;93.90;;;;;;5081599;28;20044;-64
2022/04/04 22:51:19;;;;;;;5.78;1.83;;;14.30;93.50;;;;;;5087484;28;20044;-65
2022/04/04 22:53:44;;;;;;;5.70;1.42;;;14.20;93.50;;;;;;5077492;28;20497;-63
2022/04/04 22:56:10;;;;;;;5.32;1.40;;;14.20;92.40;;;;;;5094043;28;20149;-64
2022/04/04 22:58:36;;;;;;;7.80;1.73;;;14.20;93.40;;;;;;5081090;28;20040;-65
2022/04/04 23:01:02;;;;;;;7.28;1.60;;;14.40;93.50;;;;;;5088752;28;20528;-61
2022/04/04 23:03:27;;;;;;;4.18;1.45;;;14.40;93.40;;;;;;5084746;28;20237;-65
2022/04/04 23:05:53;;;;;;;3.53;1.20;;;14.50;93.50;;;;;;5077935;28;20040;-65
2022/04/04 23:08:19;;;;;;;5.85;1.40;;;;;;;;;;5094757;28;20119;-66
2022/04/04 23:10:45;;;;;;;6.95;1.50;;;14.00;92.10;;;;;;5074824;28;20127;-65
2022/04/04 23:13:11;;;;;;;5.72;1.48;;;14.20;93.50;;;;;;5084981;28;20117;-65
2022/04/04 23:15:37;;;;;;;5.78;1.42;;;14.30;92.80;;;;;;5092868;28;20068;-65
2022/04/04 23:18:02;;;;;;;5.70;2.00;;;14.30;93.40;;;;;;5088554;28;20486;-65
2022/04/04 23:20:28;;;;;;;7.65;1.60;;;;;;;;;;5091639;28;20047;-67
2022/04/04 23:22:54;;;;;;;4.38;1.63;;;;;;;;;;5084268;28;20124;-65
2022/04/04 23:25:22;;;;;;;5.10;1.83;;;14.30;93.20;;;;;;5074851;28;20481;-65
2022/04/04 23:27:48;;;;;;;5.93;1.27;;;14.10;92.10;;;;;;5083221;28;20419;-65
2022/04/04 23:30:13;;;;;;;5.70;1.65;;;14.20;93.20;;;;;;5090783;28;20460;-65
2022/04/04 23:32:39;;;;;;;5.70;1.50;;;14.20;93.40;;;;;;5078370;28;20120;-64
2022/04/04 23:35:05;;;;;;;6.18;1.67;;;14.10;93.20;;;;;;5088123;28;20534;-63
2022/04/04 23:37:31;;;;;;;5.85;1.67;;;14.20;93.30;;;;;;5093814;28;20040;-64
2022/04/04 23:39:57;;;;;;;4.45;1.38;;;14.40;92.20;;;;;;5092480;28;20063;-63
2022/04/04 23:42:23;;;;;;;6.20;1.30;;;14.20;93.20;;;;;;5077637;28;20379;-64
2022/04/04 23:44:49;;;;;;;5.90;1.52;;;14.10;93.30;;;;;;5085429;28;20078;-64
2022/04/04 23:47:15;;;;;;;4.78;1.33;;;14.00;91.90;;;;;;5088338;28;20043;-62
2022/04/04 23:49:40;;;;;;;6.53;1.65;;;14.20;93.10;;;;;;5082629;28;20052;-64
2022/04/04 23:52:06;;;;;;;6.18;1.40;;;14.10;91.90;;;;;;5084562;28;20044;-64
2022/04/04 23:54:32;;;;;;;5.05;1.30;;;14.00;93.00;;;;;;5091426;28;20059;-63
2022/04/04 23:56:58;;;;;;;4.28;1.30;;;14.20;93.30;;;;;;5074836;28;20482;-64
2022/04/04 23:59:24;;;;;;;6.53;1.45;;;14.30;93.10;;;;;;5084809;28;20166;-64
